createdAt,value
2018-02-23T00:00:27.676Z,19.03
2018-02-23T00:02:57.035Z,19.30
2018-02-23T00:05:26.399Z,20.37
2018-02-23T00:07:55.744Z,18.57
2018-02-23T00:10:25.109Z,18.00
2018-02-23T00:12:54.446Z,20.40
2018-02-23T00:15:24.666Z,18.03
2018-02-23T00:17:54.046Z,17.67
2018-02-23T00:20:24.097Z,17.67
2018-02-23T00:22:53.492Z,19.60
2018-02-23T00:25:29.639Z,18.97
2018-02-23T00:27:58.961Z,18.47
2018-02-23T00:30:28.298Z,18.07
2018-02-23T00:32:57.633Z,19.23
2018-02-23T00:35:27.031Z,18.90
2018-02-23T00:37:56.447Z,21.13
2018-02-23T00:40:25.706Z,23.50
2018-02-23T00:42:55.860Z,23.03
2018-02-23T00:45:25.963Z,19.17
2018-02-23T00:47:55.289Z,19.33
2018-02-23T00:50:24.580Z,19.83
2018-02-23T00:52:53.910Z,23.03
2018-02-23T00:55:23.268Z,20.00
2018-02-23T00:57:52.620Z,20.87
2018-02-23T01:00:21.925Z,21.53
2018-02-23T01:02:51.242Z,17.80
2018-02-23T01:05:20.927Z,22.07
2018-02-23T01:07:50.311Z,19.20
2018-02-23T01:10:19.611Z,20.30
2018-02-23T01:12:48.968Z,20.30
2018-02-23T01:15:18.282Z,21.73
2018-02-23T01:17:54.280Z,21.20
2018-02-23T01:20:24.343Z,18.70
2018-02-23T01:22:53.661Z,23.33
2018-02-23T01:25:22.966Z,24.57
2018-02-23T01:27:52.318Z,23.13
2018-02-23T01:30:22.382Z,20.47
2018-02-23T01:33:00.712Z,24.53
2018-02-23T01:35:30.078Z,22.60
2018-02-23T01:37:59.394Z,20.20
2018-02-23T01:40:28.677Z,22.67
2018-02-23T01:42:58.064Z,24.63
2018-02-23T01:45:27.402Z,22.60
2018-02-23T01:47:56.751Z,23.27
2018-02-23T01:50:26.130Z,21.20
2018-02-23T01:52:55.569Z,23.00
2018-02-23T01:55:25.660Z,20.17
2018-02-23T01:57:55.019Z,21.40
2018-02-23T02:00:24.371Z,19.20
2018-02-23T02:02:53.688Z,20.53
2018-02-23T02:05:44.778Z,23.57
2018-02-23T02:08:14.922Z,20.60
2018-02-23T02:10:44.283Z,22.23
2018-02-23T02:13:13.575Z,23.33
2018-02-23T02:15:42.883Z,22.13
2018-02-23T02:18:12.193Z,24.50
2018-02-23T02:20:41.525Z,27.67
2018-02-23T02:23:10.814Z,24.13
2018-02-23T02:25:40.189Z,25.27
2018-02-23T02:28:09.455Z,25.50
2018-02-23T02:30:38.784Z,24.60
2018-02-23T02:33:12.865Z,24.97
2018-02-23T02:35:42.944Z,23.73
2018-02-23T02:38:12.304Z,20.57
2018-02-23T02:40:41.570Z,27.43
2018-02-23T02:43:10.958Z,25.60
2018-02-23T02:45:41.222Z,25.77
2018-02-23T02:48:12.167Z,23.73
2018-02-23T02:50:41.472Z,24.40
2018-02-23T02:53:10.800Z,23.57
2018-02-23T02:55:40.093Z,23.90
2018-02-23T02:58:09.373Z,23.73
2018-02-23T03:00:38.702Z,26.70
2018-02-23T03:03:08.796Z,24.13
2018-02-23T03:05:38.115Z,25.70
2018-02-23T03:08:15.299Z,26.10
2018-02-23T03:10:44.568Z,24.50
2018-02-23T03:13:13.889Z,24.80
2018-02-23T03:15:43.210Z,27.00
2018-02-23T03:18:12.490Z,29.23
2018-02-23T03:20:41.823Z,24.40
2018-02-23T03:23:11.847Z,26.80
2018-02-23T03:25:41.935Z,27.87
2018-02-23T03:28:12.349Z,27.57
2018-02-23T03:30:41.663Z,27.53
2018-02-23T03:33:11.037Z,25.43
2018-02-23T03:35:46.117Z,27.77
2018-02-23T03:38:15.557Z,24.83
2018-02-23T03:40:44.924Z,27.90
2018-02-23T03:43:14.300Z,26.30
2018-02-23T03:45:44.426Z,28.07
2018-02-23T03:48:13.814Z,27.10
2018-02-23T03:50:43.217Z,29.00
2018-02-23T03:53:13.372Z,33.27
2018-02-23T03:55:42.736Z,26.77
2018-02-23T03:58:12.107Z,23.53
2018-02-23T04:00:41.412Z,29.40
2018-02-23T04:03:12.278Z,29.00
2018-02-23T04:05:41.574Z,24.07
2018-02-23T04:08:11.631Z,29.80
2018-02-23T04:10:40.906Z,27.10
2018-02-23T04:13:22.944Z,30.33
2018-02-23T04:15:52.233Z,29.47
2018-02-23T04:18:21.478Z,26.17
2018-02-23T04:20:50.795Z,28.57
2018-02-23T04:23:20.103Z,31.77
2018-02-23T04:25:49.395Z,27.80
2018-02-23T04:28:18.642Z,29.07
2018-02-23T04:30:47.917Z,32.73
2018-02-23T04:33:17.999Z,27.93
2018-02-23T04:35:48.076Z,29.57
2018-02-23T04:38:17.354Z,33.33
2018-02-23T04:40:47.439Z,28.33
2018-02-23T04:43:16.817Z,32.17
2018-02-23T04:45:46.140Z,30.27
2018-02-23T04:48:21.397Z,30.03
2018-02-23T04:50:51.097Z,29.47
2018-02-23T04:53:21.177Z,29.63
2018-02-23T04:55:50.458Z,33.80
2018-02-23T04:58:19.758Z,32.87
2018-02-23T05:00:49.035Z,32.00
2018-02-23T05:03:19.161Z,29.00
2018-02-23T05:05:48.514Z,32.00
2018-02-23T05:08:18.617Z,33.40
2018-02-23T05:10:47.975Z,29.97
2018-02-23T05:13:18.103Z,37.40
2018-02-23T05:15:47.387Z,28.73
2018-02-23T05:18:16.653Z,30.13
2018-02-23T05:20:45.971Z,29.00
2018-02-23T05:23:32.492Z,31.00
2018-02-23T05:26:11.993Z,35.17
2018-02-23T05:28:46.455Z,29.67
2018-02-23T05:31:26.133Z,32.03
2018-02-23T05:33:56.280Z,30.57
2018-02-23T05:36:29.251Z,30.80
2018-02-23T05:38:58.583Z,32.80
2018-02-23T05:44:34.815Z,32.10
2018-02-23T05:47:04.074Z,36.83
2018-02-23T05:49:33.727Z,36.63
2018-02-23T05:52:03.017Z,28.20
2018-02-23T05:54:32.305Z,33.53
2018-02-23T05:57:02.383Z,33.87
2018-02-23T05:59:32.671Z,33.83
2018-02-23T06:02:02.046Z,30.67
2018-02-23T06:04:31.315Z,34.27
2018-02-23T06:07:00.564Z,35.87
2018-02-23T06:09:29.768Z,35.30
2018-02-23T06:11:58.988Z,30.17
2018-02-23T06:14:28.279Z,30.37
2018-02-23T06:16:57.542Z,35.20
2018-02-23T06:19:32.492Z,33.60
2018-02-23T06:22:01.966Z,34.80
2018-02-23T06:24:31.304Z,35.33
2018-02-23T06:27:00.683Z,33.60
2018-02-23T06:29:30.076Z,31.73
2018-02-23T06:31:59.605Z,32.83
2018-02-23T06:34:30.887Z,33.87
2018-02-23T06:37:14.506Z,29.80
2018-02-23T06:39:43.820Z,31.87
2018-02-23T06:42:13.148Z,30.03
2018-02-23T06:44:42.531Z,34.00
2018-02-23T06:47:14.339Z,31.23
2018-02-23T06:49:43.666Z,34.67
2018-02-23T06:52:12.963Z,29.80
2018-02-23T06:54:42.968Z,33.73
2018-02-23T06:57:12.248Z,32.90
2018-02-23T06:59:41.506Z,32.73
2018-02-23T07:02:10.810Z,33.87
2018-02-23T07:04:40.093Z,29.63
2018-02-23T07:07:09.377Z,33.50
2018-02-23T07:09:38.614Z,34.80
2018-02-23T07:12:07.872Z,33.27
2018-02-23T07:14:37.893Z,33.20
2018-02-23T07:17:07.876Z,32.53
2018-02-23T07:19:37.136Z,31.30
2018-02-23T07:22:07.204Z,32.67
2018-02-23T07:24:36.472Z,37.57
2018-02-23T07:27:05.769Z,30.77
2018-02-23T07:29:35.029Z,36.77
2018-02-23T07:32:04.243Z,31.23
2018-02-23T07:34:33.500Z,32.67
2018-02-23T07:37:02.727Z,30.63
2018-02-23T07:39:32.119Z,32.67
2018-02-23T07:42:01.446Z,30.33
2018-02-23T07:44:30.732Z,35.27
2018-02-23T07:46:59.899Z,35.60
2018-02-23T07:49:29.202Z,31.80
2018-02-23T07:51:58.539Z,35.13
2018-02-23T07:54:27.812Z,30.67
2018-02-23T07:56:57.081Z,29.60
2018-02-23T07:59:27.109Z,31.13
2018-02-23T08:01:56.331Z,28.10
2018-02-23T08:04:25.622Z,33.13
2018-02-23T08:06:54.883Z,29.33
2018-02-23T08:09:24.158Z,27.33
2018-02-23T08:11:53.422Z,31.90
2018-02-23T08:14:22.672Z,32.77
2018-02-23T08:16:52.433Z,34.43
2018-02-23T08:19:21.667Z,33.17
2018-02-23T08:21:50.947Z,32.80
2018-02-23T08:24:21.034Z,32.73
2018-02-23T08:26:50.480Z,33.50
2018-02-23T08:29:19.966Z,31.20
2018-02-23T08:31:49.247Z,32.27
2018-02-23T08:34:18.597Z,31.73
2018-02-23T08:36:48.563Z,31.07
2018-02-23T08:39:17.737Z,31.37
2018-02-23T08:41:47.001Z,30.60
2018-02-23T08:44:16.179Z,36.23
2018-02-23T08:46:45.432Z,29.27
2018-02-23T08:49:14.677Z,31.47
2018-02-23T08:51:44.633Z,33.00
2018-02-23T08:54:13.977Z,31.57
2018-02-23T08:56:43.244Z,31.00
2018-02-23T08:59:12.592Z,31.83
2018-02-23T09:01:41.826Z,32.80
2018-02-23T09:04:11.095Z,28.50
2018-02-23T09:06:40.386Z,31.00
2018-02-23T09:09:09.667Z,29.50
2018-02-23T09:11:38.987Z,34.57
2018-02-23T09:14:08.298Z,31.53
2018-02-23T09:16:37.554Z,32.13
2018-02-23T09:19:06.887Z,30.73
2018-02-23T09:21:36.133Z,28.73
2018-02-23T09:24:05.510Z,24.83
2018-02-23T09:26:34.819Z,28.67
2018-02-23T09:29:04.063Z,26.13
2018-02-23T09:31:33.286Z,30.43
2018-02-23T09:34:14.288Z,27.77
2018-02-23T09:36:43.516Z,24.87
2018-02-23T09:39:12.862Z,26.73
2018-02-23T09:41:42.074Z,26.23
2018-02-23T09:44:11.311Z,25.67
2018-02-23T09:46:40.553Z,27.40
2018-02-23T09:49:10.536Z,29.17
2018-02-23T09:51:39.781Z,26.00
2018-02-23T09:54:09.102Z,26.83
2018-02-23T09:56:38.416Z,26.17
2018-02-23T09:59:07.705Z,26.20
2018-02-23T10:01:36.976Z,27.00
2018-02-23T10:04:06.182Z,25.00
2018-02-23T10:06:36.266Z,25.07
2018-02-23T10:09:05.553Z,25.67
2018-02-23T10:11:34.797Z,25.90
2018-02-23T10:14:04.100Z,22.77
2018-02-23T10:16:33.347Z,24.43
2018-02-23T10:19:02.533Z,24.20
2018-02-23T10:21:31.747Z,22.03
2018-02-23T10:24:01.104Z,28.30
2018-02-23T10:26:31.294Z,27.73
2018-02-23T10:29:00.490Z,23.97
2018-02-23T10:31:30.576Z,23.17
2018-02-23T10:33:59.827Z,25.23
2018-02-23T10:36:29.046Z,22.53
2018-02-23T10:38:58.291Z,25.57
2018-02-23T10:41:28.356Z,30.13
2018-02-23T10:43:57.642Z,30.10
2018-02-23T10:46:27.656Z,22.97
2018-02-23T10:48:56.920Z,29.27
2018-02-23T10:51:26.239Z,23.60
2018-02-23T10:53:56.324Z,28.27
2018-02-23T10:56:26.387Z,29.07
2018-02-23T10:58:55.635Z,27.47
2018-02-23T11:01:24.849Z,28.70
2018-02-23T11:03:54.046Z,23.50
2018-02-23T11:06:24.340Z,26.57
2018-02-23T11:08:53.549Z,27.90
2018-02-23T11:11:23.539Z,25.57
2018-02-23T11:13:52.842Z,27.17
2018-02-23T11:16:22.146Z,27.00
2018-02-23T11:18:51.387Z,26.70
2018-02-23T11:21:20.697Z,25.07
2018-02-23T11:23:49.931Z,26.83
2018-02-23T11:26:19.253Z,27.30
2018-02-23T11:28:49.323Z,23.57
2018-02-23T11:31:18.532Z,25.57
2018-02-23T11:33:47.772Z,22.97
2018-02-23T11:36:26.162Z,26.10
2018-02-23T11:38:55.386Z,24.30
2018-02-23T11:41:24.637Z,27.47
2018-02-23T11:43:53.880Z,27.17
2018-02-23T11:46:23.152Z,27.03
2018-02-23T11:48:52.437Z,25.47
2018-02-23T11:51:21.737Z,28.53
2018-02-23T11:53:51.781Z,23.37
2018-02-23T11:56:21.070Z,26.43
2018-02-23T11:58:50.296Z,23.93
2018-02-23T12:01:20.334Z,26.47
2018-02-23T12:03:49.584Z,22.77
2018-02-23T12:06:19.633Z,25.97
2018-02-23T12:08:48.918Z,22.63
2018-02-23T12:11:18.970Z,24.40
2018-02-23T12:13:48.960Z,24.03
2018-02-23T12:16:18.177Z,26.03
2018-02-23T12:18:47.430Z,22.83
2018-02-23T12:21:16.787Z,23.67
2018-02-23T12:23:46.120Z,23.13
2018-02-23T12:26:15.408Z,26.03
2018-02-23T12:28:44.653Z,22.83
2018-02-23T12:31:14.042Z,22.87
2018-02-23T12:33:43.321Z,24.23
2018-02-23T12:36:13.296Z,20.07
2018-02-23T12:38:42.489Z,22.50
2018-02-23T12:41:11.695Z,22.80
2018-02-23T12:43:40.913Z,21.93
2018-02-23T12:46:10.129Z,25.13
2018-02-23T12:48:39.345Z,23.67
2018-02-23T12:51:08.576Z,22.20
2018-02-23T12:53:37.803Z,21.97
2018-02-23T12:56:07.793Z,21.57
2018-02-23T12:58:37.109Z,21.43
2018-02-23T13:01:06.353Z,20.37
2018-02-23T13:03:35.613Z,20.23
2018-02-23T13:06:04.856Z,21.13
2018-02-23T13:08:34.145Z,18.70
2018-02-23T13:11:03.435Z,20.33
2018-02-23T13:13:32.717Z,21.57
2018-02-23T13:16:01.955Z,20.93
2018-02-23T13:18:31.251Z,21.17
2018-02-23T13:21:01.262Z,23.57
2018-02-23T13:23:30.550Z,21.83
2018-02-23T13:25:59.777Z,21.43
2018-02-23T13:28:34.702Z,22.03
2018-02-23T13:31:03.951Z,20.77
2018-02-23T13:33:34.036Z,24.90
2018-02-23T13:36:03.307Z,20.93
2018-02-23T13:38:32.664Z,21.03
2018-02-23T13:41:07.676Z,19.63
2018-02-23T13:43:36.863Z,23.80
2018-02-23T13:46:06.111Z,23.43
2018-02-23T13:48:35.346Z,20.17
2018-02-23T13:51:04.581Z,23.13
2018-02-23T13:53:39.356Z,20.13
2018-02-23T13:56:08.588Z,22.43
2018-02-23T13:58:37.829Z,26.07
2018-02-23T14:01:07.155Z,22.63
2018-02-23T14:03:36.342Z,21.83
2018-02-23T14:06:05.679Z,22.30
2018-02-23T14:08:35.019Z,22.90
2018-02-23T14:11:04.241Z,22.43
2018-02-23T14:13:34.270Z,20.53
2018-02-23T14:16:04.295Z,20.10
2018-02-23T14:18:33.585Z,21.80
2018-02-23T14:21:02.903Z,22.90
2018-02-23T14:23:32.189Z,20.67
2018-02-23T14:26:01.440Z,22.33
2018-02-23T14:28:31.571Z,21.77
2018-02-23T14:31:00.915Z,22.50
2018-02-23T14:33:30.137Z,23.37
2018-02-23T14:35:59.459Z,20.53
2018-02-23T14:38:28.686Z,21.07
2018-02-23T14:40:57.886Z,21.67
2018-02-23T14:43:27.167Z,22.07
2018-02-23T14:45:56.562Z,22.10
2018-02-23T14:48:39.602Z,21.40
2018-02-23T14:51:10.729Z,20.57
2018-02-23T14:53:40.772Z,21.07
2018-02-23T14:56:10.065Z,21.17
2018-02-23T14:58:39.264Z,21.63
2018-02-23T15:01:08.520Z,19.40
2018-02-23T15:03:38.544Z,27.23
2018-02-23T15:06:08.611Z,20.77
2018-02-23T15:08:37.903Z,22.40
2018-02-23T15:11:07.910Z,20.23
2018-02-23T15:13:37.971Z,24.57
2018-02-23T15:16:07.161Z,21.07
2018-02-23T15:18:37.196Z,21.93
2018-02-23T15:21:07.215Z,17.77
2018-02-23T15:23:36.419Z,21.27
2018-02-23T15:26:05.656Z,22.23
2018-02-23T15:28:34.904Z,20.50
2018-02-23T15:31:16.031Z,22.03
2018-02-23T15:33:45.227Z,21.37
2018-02-23T15:36:14.481Z,22.87
2018-02-23T15:38:43.729Z,18.90
2018-02-23T15:41:12.962Z,25.03
2018-02-23T15:43:42.292Z,22.70
2018-02-23T15:46:11.553Z,22.63
2018-02-23T15:48:56.419Z,21.83
2018-02-23T15:51:43.125Z,20.63
2018-02-23T15:54:13.167Z,23.23
2018-02-23T15:56:42.351Z,26.47
2018-02-23T15:59:13.666Z,24.60
2018-02-23T16:01:43.008Z,22.83
2018-02-23T16:04:12.306Z,23.87
2018-02-23T16:06:42.412Z,25.80
2018-02-23T16:09:17.762Z,24.13
2018-02-23T16:11:47.128Z,24.50
2018-02-23T16:14:17.239Z,20.57
2018-02-23T16:16:47.310Z,27.33
2018-02-23T16:19:17.344Z,25.23
2018-02-23T16:21:46.655Z,21.03
2018-02-23T16:24:15.935Z,21.53
2018-02-23T16:26:53.428Z,24.07
2018-02-23T16:29:22.766Z,25.13
2018-02-23T16:31:52.040Z,25.80
2018-02-23T16:34:21.375Z,25.53
2018-02-23T16:36:52.704Z,26.63
2018-02-23T16:39:23.946Z,25.07
2018-02-23T16:42:01.383Z,25.83
2018-02-23T16:44:30.664Z,25.10
2018-02-23T16:46:59.981Z,23.17
2018-02-23T16:49:47.025Z,25.00
2018-02-23T16:52:16.325Z,24.07
2018-02-23T16:54:45.616Z,26.83
2018-02-23T16:57:15.726Z,23.67
2018-02-23T16:59:45.031Z,24.47
2018-02-23T17:02:14.278Z,25.87
2018-02-23T17:04:44.374Z,25.23
2018-02-23T17:07:13.957Z,25.10
2018-02-23T17:09:43.497Z,26.77
2018-02-23T17:12:13.068Z,26.17
2018-02-23T17:14:54.934Z,23.60
2018-02-23T17:17:24.860Z,29.20
2018-02-23T17:19:54.327Z,27.33
2018-02-23T17:22:23.828Z,31.50
2018-02-23T17:24:55.217Z,30.27
2018-02-23T17:27:27.952Z,33.47
2018-02-23T17:29:58.048Z,27.93
2018-02-23T17:32:27.428Z,30.30
2018-02-23T17:35:05.517Z,32.40
2018-02-23T17:37:34.833Z,28.80
2018-02-23T17:40:04.163Z,28.93
2018-02-23T17:42:33.451Z,31.40
2018-02-23T17:45:02.782Z,33.73
2018-02-23T17:47:32.861Z,27.43
2018-02-23T17:50:03.010Z,31.93
2018-02-23T17:52:32.271Z,32.73
2018-02-23T17:55:01.544Z,30.27
2018-02-23T17:57:40.732Z,30.40
2018-02-23T18:00:10.891Z,29.83
2018-02-23T18:02:40.361Z,31.17
2018-02-23T18:05:09.620Z,29.30
2018-02-23T18:07:45.556Z,28.90
2018-02-23T18:10:29.679Z,28.67
2018-02-23T18:12:59.059Z,29.50
2018-02-23T18:15:30.321Z,32.73
2018-02-23T18:17:59.693Z,28.30
2018-02-23T18:20:29.039Z,29.90
2018-02-23T18:23:22.255Z,34.13
2018-02-23T18:25:51.536Z,28.67
2018-02-23T18:28:20.863Z,28.23
2018-02-23T18:31:08.819Z,27.87
2018-02-23T18:33:38.116Z,29.10
2018-02-23T18:36:08.160Z,28.60
2018-02-23T18:38:37.378Z,28.90
2018-02-23T18:41:07.401Z,31.30
2018-02-23T18:43:36.679Z,32.57
2018-02-23T18:46:05.910Z,33.27
2018-02-23T18:48:35.928Z,32.97
2018-02-23T18:51:05.200Z,31.73
2018-02-23T18:53:34.445Z,34.63
2018-02-23T18:56:04.469Z,30.43
2018-02-23T18:58:33.746Z,33.53
2018-02-23T19:01:03.709Z,32.50
2018-02-23T19:03:33.105Z,32.47
2018-02-23T19:06:02.392Z,30.10
2018-02-23T19:08:31.665Z,33.93
2018-02-23T19:11:01.750Z,31.47
2018-02-23T19:13:31.012Z,31.33
2018-02-23T19:18:59.749Z,33.40
2018-02-23T19:21:35.059Z,32.57
2018-02-23T19:24:19.532Z,32.93
2018-02-23T19:26:56.712Z,30.07
2018-02-23T19:29:25.960Z,33.73
2018-02-23T19:31:55.243Z,33.47
2018-02-23T19:34:24.594Z,34.80
2018-02-23T19:36:54.673Z,37.07
2018-02-23T19:39:23.964Z,33.63
2018-02-23T19:41:53.235Z,32.70
2018-02-23T19:44:22.519Z,31.93
2018-02-23T19:46:51.888Z,35.47
2018-02-23T19:49:21.614Z,35.73
2018-02-23T19:51:51.642Z,33.00
2018-02-23T19:54:20.911Z,32.40
2018-02-23T19:56:50.174Z,38.50
2018-02-23T19:59:19.431Z,32.50
2018-02-23T20:01:48.783Z,35.47
2018-02-23T20:04:18.890Z,32.80
2018-02-23T20:06:48.174Z,34.20
2018-02-23T20:09:17.412Z,36.60
2018-02-23T20:11:47.707Z,37.07
2018-02-23T20:14:16.998Z,35.63
2018-02-23T20:16:46.336Z,35.30
2018-02-23T20:19:15.615Z,33.90
2018-02-23T20:21:45.668Z,37.77
2018-02-23T20:24:14.955Z,37.20
2018-02-23T20:26:44.210Z,34.40
2018-02-23T20:29:13.499Z,34.53
2018-02-23T20:31:42.695Z,35.47
2018-02-23T20:34:11.942Z,36.87
2018-02-23T20:36:41.206Z,34.33
2018-02-23T20:39:10.430Z,35.93
2018-02-23T20:41:39.643Z,37.73
2018-02-23T20:44:08.879Z,36.40
2018-02-23T20:46:38.142Z,38.17
2018-02-23T20:49:07.358Z,34.53
2018-02-23T20:51:36.622Z,36.00
2018-02-23T20:54:05.857Z,36.13
2018-02-23T20:56:35.139Z,36.10
2018-02-23T20:59:05.155Z,37.17
2018-02-23T21:01:35.201Z,37.97
2018-02-23T21:04:04.421Z,38.87
2018-02-23T21:06:33.710Z,37.60
2018-02-23T21:09:02.959Z,39.43
2018-02-23T21:11:32.233Z,35.97
2018-02-23T21:14:02.243Z,36.60
2018-02-23T21:16:31.548Z,39.53
2018-02-23T21:19:00.824Z,40.80
2018-02-23T21:21:31.038Z,36.40
2018-02-23T21:24:00.313Z,41.07
2018-02-23T21:26:29.544Z,36.83
2018-02-23T21:28:58.875Z,34.97
2018-02-23T21:31:28.145Z,39.53
2018-02-23T21:33:57.399Z,40.23
2018-02-23T21:36:27.398Z,38.30
2018-02-23T21:38:57.411Z,38.53
2018-02-23T21:41:26.623Z,38.00
2018-02-23T21:43:55.871Z,42.33
2018-02-23T21:46:25.930Z,41.50
2018-02-23T21:48:55.216Z,37.63
2018-02-23T21:51:24.491Z,38.93
2018-02-23T21:53:53.773Z,43.57
2018-02-23T21:56:23.023Z,42.23
2018-02-23T21:58:52.254Z,38.53
2018-02-23T22:01:21.458Z,44.87
2018-02-23T22:03:51.537Z,41.63
2018-02-23T22:06:21.339Z,37.00
2018-02-23T22:08:51.803Z,39.27
2018-02-23T22:11:21.137Z,43.20
2018-02-23T22:13:55.087Z,38.27
2018-02-23T22:16:24.337Z,47.20
2018-02-23T22:18:54.360Z,40.43
2018-02-23T22:21:23.627Z,36.33
2018-02-23T22:23:52.860Z,41.20
2018-02-23T22:26:22.072Z,38.50
2018-02-23T22:28:51.333Z,44.90
2018-02-23T22:31:20.659Z,44.83
2018-02-23T22:33:49.881Z,39.93
2018-02-23T22:36:19.145Z,43.90
2018-02-23T22:38:48.393Z,44.13
2018-02-23T22:41:17.669Z,43.97
2018-02-23T22:43:47.654Z,42.17
2018-02-23T22:46:16.877Z,42.23
2018-02-23T22:48:46.079Z,43.57
2018-02-23T22:51:15.271Z,39.97
2018-02-23T22:53:44.474Z,45.57
2018-02-23T22:56:13.741Z,43.73
2018-02-23T22:58:43.038Z,44.97
2018-02-23T23:01:12.238Z,42.97
2018-02-23T23:03:41.461Z,48.13
2018-02-23T23:06:10.810Z,45.77
2018-02-23T23:08:40.081Z,46.70
2018-02-23T23:11:09.316Z,46.07
2018-02-23T23:13:39.424Z,42.53
2018-02-23T23:16:08.703Z,48.17
2018-02-23T23:18:37.955Z,48.07
2018-02-23T23:21:07.977Z,46.77
2018-02-23T23:23:37.253Z,47.47
2018-02-23T23:26:06.516Z,46.60
2018-02-23T23:28:36.580Z,49.03
2018-02-23T23:31:05.805Z,50.00
2018-02-23T23:33:34.990Z,45.80
2018-02-23T23:36:04.389Z,54.33
2018-02-23T23:38:39.729Z,49.37
2018-02-23T23:41:08.985Z,46.07
2018-02-23T23:43:38.140Z,48.43
2018-02-23T23:46:07.413Z,43.60
2018-02-23T23:48:36.684Z,48.00
2018-02-23T23:51:05.911Z,53.43
2018-02-23T23:53:35.887Z,48.30
2018-02-23T23:56:15.520Z,46.93
2018-02-23T23:58:44.717Z,52.40
